Bookmark and Share
Track history (hours):
 

Tenaka

Last reported at 2014-Apr-24 02:25 UTC. Time now 2014-Apr-24 06:02 UTC.
Position N 50°06' W 125°05'.

Length 50 m; draft 2.6 m.

Type: Passenger vessel. MMSI: 316001272.

NotesDate/timePositionNaut miles runAvg speedWind from/ knotsBaromVisibWave heightAir tempDewpointWater temp
2014-Apr-24 02:25N 50°06' W 125°05'5 5.4
2014-Apr-24 01:33N 50°07' W 125°12'3 2.6
2014-Apr-24 00:32N 50°07' W 125°08'3 3.1
2014-Apr-23 23:31N 50°06' W 125°13'2 1.4
2014-Apr-23 22:16N 50°07' W 125°10'1 0.7
2014-Apr-23 21:30N 50°07' W 125°11'2 2.0
2014-Apr-23 20:30N 50°07' W 125°08'3 3.3
2014-Apr-23 19:33N 50°06' W 125°12'2 2.3
2014-Apr-23 18:29N 50°07' W 125°09'3 2.7
2014-Apr-23 17:33N 50°06' W 125°13'2 1.4
2014-Apr-23 16:20N 50°07' W 125°10'2 2.2
2014-Apr-23 15:32N 50°06' W 125°13'6 0.4
2014-Apr-23 02:20N 50°06' W 125°04'5 6.2
2014-Apr-23 01:31N 50°07' W 125°12'2 2.4
2014-Apr-23 00:29N 50°07' W 125°08'3 3.1
2014-Apr-22 23:33N 50°06' W 125°13'2 1.3
2014-Apr-22 22:18N 50°07' W 125°10'1 1.8
2014-Apr-22 21:32N 50°07' W 125°12'3 3.3
2014-Apr-22 20:32N 50°06' W 125°07'3 3.5
2014-Apr-22 19:33N 50°06' W 125°13'2 2.0
2014-Apr-22 18:22N 50°07' W 125°09'2 2.5
2014-Apr-22 17:32N 50°07' W 125°12'1 0.9
2014-Apr-22 16:21N 50°07' W 125°10'1 1.4
2014-Apr-22 15:30N 50°07' W 125°12'4 0.3
2014-Apr-22 02:11N 50°06' W 125°06'4 6.7
2014-Apr-22 01:32N 50°06' W 125°13'3 2.3
2014-Apr-22 00:27N 50°07' W 125°09'2 2.3
2014-Apr-21 23:32N 50°07' W 125°12'0 0.0
2014-Apr-21 22:19N 50°07' W 125°12'0 0.4
2014-Apr-21 21:33N 50°06' W 125°12'2 1.7
2014-Apr-21 20:23N 50°07' W 125°09'2 2.6
2014-Apr-21 19:33N 50°06' W 125°13'2 1.6
2014-Apr-21 18:22N 50°07' W 125°10'2 2.3
2014-Apr-21 17:32N 50°06' W 125°13'2 1.3
2014-Apr-21 16:17N 50°07' W 125°10'2 2.3
2014-Apr-21 15:33N 50°06' W 125°13'5 0.3
2014-Apr-21 02:18N 50°06' W 125°06'5 6.0
2014-Apr-21 01:33N 50°06' W 125°13'3 2.6
2014-Apr-21 00:25N 50°06' W 125°08'3 3.3
2014-Apr-20 23:33N 50°06' W 125°13'4 3.5
2014-Apr-20 22:29N 50°06' W 125°07'3 3.1
2014-Apr-20 21:33N 50°07' W 125°11'3 3.0
2014-Apr-20 20:33N 50°07' W 125°07'3 3.4
2014-Apr-20 19:32N 50°07' W 125°12'3 2.8
2014-Apr-20 18:29N 50°07' W 125°08'3 3.3
2014-Apr-20 17:29N 50°06' W 125°13'4 0.3
2014-Apr-20 02:15N 50°06' W 125°07'4 5.4
2014-Apr-20 01:33N 50°07' W 125°12'2 2.2
2014-Apr-20 00:28N 50°07' W 125°09'2 2.3
2014-Apr-19 23:31N 50°07' W 125°12'3 3.6
2014-Apr-19 22:33N 50°06' W 125°07'4 3.6
2014-Apr-19 21:33N 50°07' W 125°12'3 2.7
2014-Apr-19 20:30N 50°07' W 125°08'3 3.2
2014-Apr-19 19:31N 50°06' W 125°13'4 3.5
2014-Apr-19 18:29N 50°06' W 125°07'4 4.0
2014-Apr-19 17:33N 50°06' W 125°13'4 3.6
2014-Apr-19 16:30N 50°06' W 125°07'4 4.1
2014-Apr-19 15:33N 50°06' W 125°13'0 0.0
2014-Apr-19 01:31N 50°06' W 125°13'2 1.7
2014-Apr-19 00:20N 50°07' W 125°10'2 2.6
2014-Apr-18 23:32N 50°06' W 125°13'1 0.6
2014-Apr-18 22:13N 50°07' W 125°12'1 0.7
2014-Apr-18 21:29N 50°06' W 125°12'2 2.0
2014-Apr-18 20:22N 50°07' W 125°09'2 2.5
2014-Apr-18 19:29N 50°06' W 125°13'4 4.2
2014-Apr-18 18:32N 50°06' W 125°06'4 3.7
2014-Apr-18 17:28N 50°06' W 125°13'1 0.5
2014-Apr-18 16:13N 50°07' W 125°12'1 0.9
2014-Apr-18 15:28N 50°06' W 125°13'4 0.3
2014-Apr-18 02:29N 50°06' W 125°06'4 4.2
2014-Apr-18 01:33N 50°06' W 125°13'4 3.4
2014-Apr-18 00:31N 50°06' W 125°07'2 2.1
2014-Apr-17 23:33N 50°06' W 125°10'1 0.4
2014-Apr-17 22:22N 50°07' W 125°10'1 0.5
2014-Apr-17 20:32N 50°07' W 125°12'4 3.3
2014-Apr-17 19:12N 50°06' W 125°05'5 6.8
2014-Apr-17 18:30N 50°06' W 125°13'3 2.9
2014-Apr-17 17:32N 50°06' W 125°08'1 1.2
2014-Apr-17 16:31N 50°07' W 125°10'2 1.7
2014-Apr-17 15:34N 50°06' W 125°13'3 0.2
2014-Apr-17 02:09N 50°06' W 125°08'3 5.5
2014-Apr-17 01:33N 50°06' W 125°13'1 1.1
2014-Apr-17 00:17N 50°07' W 125°10'1 1.7
2014-Apr-16 23:31N 50°06' W 125°13'4 3.6
2014-Apr-16 22:29N 50°06' W 125°07'4 3.8
2014-Apr-16 21:31N 50°06' W 125°13'1 0.5
2014-Apr-16 20:11N 50°07' W 125°12'2 1.4
2014-Apr-16 18:31N 50°06' W 125°08'3 3.0
2014-Apr-16 17:33N 50°06' W 125°13'3 2.4
2014-Apr-16 16:23N 50°06' W 125°08'3 3.1
2014-Apr-16 15:30N 50°06' W 125°13'4 0.3
2014-Apr-16 02:13N 50°06' W 125°07'3 4.6
2014-Apr-16 01:33N 50°07' W 125°12'2 2.2
2014-Apr-16 00:32N 50°06' W 125°08'3 2.9
2014-Apr-15 23:32N 50°06' W 125°13'2 1.2
2014-Apr-15 22:17N 50°07' W 125°10'2 2.0
2014-Apr-15 21:32N 50°06' W 125°13'2 1.9
2014-Apr-15 20:20N 50°06' W 125°09'2 2.5
2014-Apr-15 19:27N 50°06' W 125°13'1 1.0
2014-Apr-15 18:09N 50°07' W 125°11'1 1.9
2014-Apr-15 17:29N 50°06' W 125°13'3 3.4
2014-Apr-15 16:29N 50°06' W 125°07'3 3.6
2014-Apr-15 15:33N 50°06' W 125°13'0 0.0
2014-Apr-15 00:34N 50°06' W 125°13'1 0.3
2014-Apr-14 22:32N 50°07' W 125°12'1 0.4
2014-Apr-14 20:30N 50°06' W 125°13'4 3.9
2014-Apr-14 19:30N 50°06' W 125°07'4 4.1
2014-Apr-14 18:33N 50°06' W 125°13'4 4.0
2014-Apr-14 17:32N 50°06' W 125°06'1 1.4
2014-Apr-14 16:32N 50°07' W 125°08'1 1.3
2014-Apr-14 15:33N 50°07' W 125°10'  

Dump ship's entire track history

sailing weather and tide predictions

Tenaka — CY7449 — position and weather